createdAt,value
2022-12-01T00:03:37.401Z,119.03
2022-12-01T00:08:34.092Z,118.72
2022-12-01T00:13:30.408Z,116.82
2022-12-01T00:18:26.630Z,115.57
2022-12-01T00:23:23.457Z,114.85
2022-12-01T00:28:19.659Z,115.70
2022-12-01T00:33:15.924Z,113.47
2022-12-01T00:38:12.161Z,116.50
2022-12-01T00:43:08.393Z,112.40
2022-12-01T00:48:04.603Z,111.45
2022-12-01T00:53:00.852Z,111.85
2022-12-01T00:57:57.089Z,111.55
2022-12-01T01:02:53.358Z,110.57
2022-12-01T01:07:49.704Z,110.10
2022-12-01T01:12:46.025Z,109.03
2022-12-01T01:17:42.213Z,112.78
2022-12-01T01:22:38.395Z,110.63
2022-12-01T01:27:34.902Z,107.38
2022-12-01T01:32:31.229Z,108.38
2022-12-01T01:37:27.502Z,104.18
2022-12-01T01:42:23.731Z,104.05
2022-12-01T01:47:23.099Z,102.43
2022-12-01T01:52:21.206Z,102.88
2022-12-01T01:57:20.813Z,103.30
2022-12-01T02:02:17.514Z,103.32
2022-12-01T02:07:16.345Z,97.18
2022-12-01T02:12:12.622Z,100.05
2022-12-01T02:17:31.495Z,100.80
2022-12-01T02:22:52.214Z,101.10
2022-12-01T02:27:58.627Z,100.78
2022-12-01T02:33:03.943Z,101.10
2022-12-01T02:38:12.038Z,102.47
2022-12-01T02:43:25.316Z,98.47
2022-12-01T02:48:29.419Z,95.88
2022-12-01T02:53:25.853Z,97.97
2022-12-01T02:58:22.173Z,94.35
2022-12-01T03:03:27.833Z,94.63
2022-12-01T03:08:33.509Z,92.65
2022-12-01T03:13:32.699Z,94.63
2022-12-01T03:18:34.766Z,95.47
2022-12-01T03:23:33.358Z,96.50
2022-12-01T03:28:32.950Z,96.45
2022-12-01T03:33:38.204Z,89.82
2022-12-01T03:38:36.219Z,88.63
2022-12-01T03:43:34.246Z,87.55
2022-12-01T03:48:30.944Z,92.35
2022-12-01T03:53:30.050Z,93.60
2022-12-01T03:58:30.274Z,88.90
2022-12-01T04:03:26.896Z,81.97
2022-12-01T04:08:23.574Z,87.75
2022-12-01T04:13:23.248Z,84.63
2022-12-01T04:18:20.077Z,85.05
2022-12-01T04:23:36.344Z,85.25
2022-12-01T04:28:32.763Z,84.57
2022-12-01T04:33:29.356Z,81.90
2022-12-01T04:38:30.225Z,84.47
2022-12-01T04:43:26.985Z,81.38
2022-12-01T04:48:23.219Z,84.13
2022-12-01T04:53:19.467Z,86.55
2022-12-01T04:58:15.669Z,90.60
2022-12-01T05:03:15.092Z,88.07
2022-12-01T05:08:11.644Z,84.85
2022-12-01T05:13:07.890Z,87.00
2022-12-01T05:18:04.183Z,85.70
2022-12-01T05:23:09.793Z,85.28
2022-12-01T05:28:09.956Z,79.95
2022-12-01T05:33:06.353Z,81.05
2022-12-01T05:38:07.613Z,78.93
2022-12-01T05:43:04.337Z,83.47
2022-12-01T05:48:01.567Z,76.68
2022-12-01T05:52:57.842Z,80.07
2022-12-01T05:57:54.152Z,81.45
2022-12-01T06:02:50.393Z,82.00
2022-12-01T06:07:46.831Z,82.20
2022-12-01T06:12:43.254Z,78.55
2022-12-01T06:17:40.596Z,79.68
2022-12-01T06:22:37.069Z,79.82
2022-12-01T06:27:33.307Z,80.03
2022-12-01T06:32:29.548Z,81.95
2022-12-01T06:37:26.665Z,83.93
2022-12-01T06:42:22.951Z,82.50
2022-12-01T06:47:19.135Z,78.10
2022-12-01T06:52:15.348Z,79.40
2022-12-01T06:57:11.521Z,80.80
2022-12-01T07:02:10.201Z,79.00
2022-12-01T07:07:06.498Z,75.38
2022-12-01T07:12:02.869Z,77.57
2022-12-01T07:16:59.209Z,75.75
2022-12-01T07:21:55.451Z,73.28
2022-12-01T07:26:51.701Z,70.80
2022-12-01T07:31:47.963Z,76.25
2022-12-01T07:36:44.213Z,73.45
2022-12-01T07:41:40.411Z,71.53
2022-12-01T07:46:36.905Z,73.75
2022-12-01T07:51:33.570Z,74.20
2022-12-01T07:56:29.871Z,67.28
2022-12-01T08:01:26.325Z,70.07
2022-12-01T08:06:23.675Z,65.03
2022-12-01T08:11:25.625Z,66.72
2022-12-01T08:16:23.007Z,63.03
2022-12-01T08:21:20.842Z,64.55
2022-12-01T08:26:18.965Z,60.80
2022-12-01T08:31:20.322Z,63.78
2022-12-01T08:36:17.407Z,61.40
2022-12-01T08:41:14.124Z,61.38
2022-12-01T08:46:11.378Z,59.88
2022-12-01T08:51:08.937Z,59.97
2022-12-01T08:56:07.109Z,59.88
2022-12-01T09:01:13.269Z,54.50
2022-12-01T09:06:16.880Z,53.42
2022-12-01T09:11:18.012Z,53.25
2022-12-01T09:16:14.974Z,53.28
2022-12-01T09:21:12.693Z,54.45
2022-12-01T09:26:13.353Z,51.60
2022-12-01T09:31:10.999Z,51.92
2022-12-01T09:36:08.615Z,49.58
2022-12-01T09:41:11.493Z,48.65
2022-12-01T09:46:11.370Z,49.60
2022-12-01T09:51:12.654Z,49.58
2022-12-01T09:56:22.426Z,49.17
2022-12-01T10:01:25.843Z,47.10
2022-12-01T10:06:29.380Z,47.63
2022-12-01T10:11:31.920Z,51.05
2022-12-01T10:16:33.230Z,51.33
2022-12-01T10:21:48.438Z,48.50
2022-12-01T10:26:51.574Z,50.85
2022-12-01T10:32:06.267Z,48.30
2022-12-01T10:37:02.797Z,46.35
2022-12-01T10:42:22.504Z,42.97
2022-12-01T10:47:20.461Z,40.28
2022-12-01T10:52:25.872Z,41.33
2022-12-01T10:57:23.005Z,38.05
2022-12-01T11:02:23.706Z,40.10
2022-12-01T11:07:24.485Z,36.08
2022-12-01T11:12:20.809Z,35.63
2022-12-01T11:17:25.325Z,38.47
2022-12-01T11:22:31.146Z,40.22
2022-12-01T11:27:32.340Z,40.40
2022-12-01T11:32:39.364Z,40.65
2022-12-01T11:37:37.053Z,42.03
2022-12-01T11:42:34.378Z,43.20
2022-12-01T11:47:30.590Z,43.28
2022-12-01T11:52:31.351Z,43.35
2022-12-01T11:57:36.150Z,40.20
2022-12-01T12:02:38.578Z,40.00
2022-12-01T12:07:44.224Z,37.38
2022-12-01T12:12:40.563Z,34.75
2022-12-01T12:17:55.877Z,37.70
2022-12-01T12:22:55.868Z,38.22
2022-12-01T12:28:11.257Z,39.38
2022-12-01T12:33:22.684Z,39.30
2022-12-01T12:38:31.051Z,34.90
2022-12-01T12:43:27.429Z,41.17
2022-12-01T12:48:28.309Z,38.92
2022-12-01T12:53:27.548Z,38.35
2022-12-01T12:58:26.549Z,38.78
2022-12-01T13:03:41.697Z,37.05
2022-12-01T13:08:52.435Z,39.10
2022-12-01T13:13:48.582Z,40.35
2022-12-01T13:18:47.947Z,40.92
2022-12-01T13:23:45.299Z,38.63
2022-12-01T13:28:43.938Z,41.00
2022-12-01T13:33:46.188Z,38.28
2022-12-01T13:38:42.520Z,38.45
2022-12-01T13:43:47.471Z,39.35
2022-12-01T13:48:54.203Z,41.40
2022-12-01T13:53:56.572Z,40.78
2022-12-01T13:58:54.467Z,43.17
2022-12-01T14:03:57.023Z,40.25
2022-12-01T14:08:57.797Z,41.55
2022-12-01T14:14:09.159Z,38.58
2022-12-01T14:19:05.361Z,36.63
2022-12-01T14:24:04.279Z,36.90
2022-12-01T14:29:00.681Z,35.45
2022-12-01T14:34:11.131Z,34.42
2022-12-01T14:39:14.705Z,35.95
2022-12-01T14:44:19.494Z,33.08
2022-12-01T14:49:22.354Z,34.05
2022-12-01T14:54:25.141Z,34.28
2022-12-01T14:59:22.881Z,32.83
2022-12-01T15:04:19.220Z,32.03
2022-12-01T15:09:34.077Z,33.40
2022-12-01T15:14:38.667Z,33.70
2022-12-01T15:19:34.906Z,35.05
2022-12-01T15:24:31.221Z,35.40
2022-12-01T15:29:31.794Z,34.47
2022-12-01T15:34:28.014Z,33.97
2022-12-01T15:39:29.776Z,34.08
2022-12-01T15:44:28.096Z,33.50
2022-12-01T15:49:29.410Z,31.85
2022-12-01T15:54:26.664Z,31.67
2022-12-01T15:59:28.588Z,33.17
2022-12-01T16:04:29.211Z,32.88
2022-12-01T16:09:27.867Z,34.03
2022-12-01T16:14:25.572Z,34.63
2022-12-01T16:19:23.848Z,34.83
2022-12-01T16:24:23.184Z,36.17
2022-12-01T16:29:20.809Z,35.42
2022-12-01T16:34:43.941Z,39.65
2022-12-01T16:39:34.334Z,36.97
2022-12-01T16:44:30.572Z,41.10
2022-12-01T16:49:26.887Z,40.50
2022-12-01T16:54:23.200Z,44.42
2022-12-01T16:59:19.996Z,46.00
2022-12-01T17:04:16.358Z,45.42
2022-12-01T17:09:12.714Z,45.30
2022-12-01T17:14:09.129Z,48.70
2022-12-01T17:19:05.330Z,48.45
2022-12-01T17:24:01.601Z,47.35
2022-12-01T17:28:57.814Z,48.28
2022-12-01T17:33:54.665Z,45.83
2022-12-01T17:38:50.916Z,44.85
2022-12-01T17:43:47.620Z,45.95
2022-12-01T17:48:45.855Z,44.45
2022-12-01T17:53:42.293Z,45.35
2022-12-01T17:58:38.892Z,43.20
2022-12-01T18:03:35.108Z,42.53
2022-12-01T18:08:31.653Z,42.80
2022-12-01T18:13:27.955Z,41.13
2022-12-01T18:18:24.150Z,42.03
2022-12-01T18:23:20.493Z,42.00
2022-12-01T18:28:16.856Z,41.55
2022-12-01T18:33:13.260Z,38.35
2022-12-01T18:38:09.488Z,39.20
2022-12-01T18:43:05.760Z,39.05
2022-12-01T18:48:04.172Z,37.92
2022-12-01T18:53:00.456Z,36.58
2022-12-01T18:57:56.714Z,40.15
2022-12-01T19:02:52.984Z,36.85
2022-12-01T19:07:49.374Z,35.95
2022-12-01T19:12:45.898Z,36.35
2022-12-01T19:17:42.158Z,35.33
2022-12-01T19:22:38.351Z,35.00
2022-12-01T19:27:34.600Z,36.35
2022-12-01T19:32:31.784Z,36.30
2022-12-01T19:37:28.057Z,36.25
2022-12-01T19:42:24.306Z,37.35
2022-12-01T19:47:22.376Z,36.38
2022-12-01T19:52:18.873Z,33.28
2022-12-01T19:57:15.261Z,35.35
2022-12-01T20:02:11.535Z,38.38
2022-12-01T20:07:07.851Z,36.10
2022-12-01T20:12:04.080Z,36.65
2022-12-01T20:17:00.420Z,38.30
2022-12-01T20:21:56.706Z,36.20
2022-12-01T20:26:53.861Z,37.72
2022-12-01T20:31:51.150Z,36.28
2022-12-01T20:36:47.626Z,39.13
2022-12-01T20:41:44.301Z,37.92
2022-12-01T20:46:45.235Z,41.88
2022-12-01T20:51:41.463Z,40.35
2022-12-01T20:56:37.742Z,43.35
2022-12-01T21:01:34.068Z,42.35
2022-12-01T21:06:30.638Z,41.20
2022-12-01T21:12:03.909Z,40.72
2022-12-01T21:17:03.688Z,39.67
2022-12-01T21:22:00.008Z,38.60
2022-12-01T21:27:01.457Z,37.63
2022-12-01T21:32:02.937Z,37.72
2022-12-01T21:37:01.879Z,37.10
2022-12-01T21:41:59.899Z,37.47
2022-12-01T21:46:57.839Z,38.97
2022-12-01T21:51:55.167Z,37.75
2022-12-01T21:56:55.146Z,38.55
2022-12-01T22:01:54.978Z,40.08
2022-12-01T22:06:52.360Z,38.22
2022-12-01T22:11:56.246Z,41.08
2022-12-01T22:17:01.051Z,36.55
2022-12-01T22:22:03.482Z,36.47
2022-12-01T22:27:05.702Z,36.92
2022-12-01T22:32:11.107Z,32.83
2022-12-01T22:37:27.775Z,33.97
2022-12-01T22:42:31.094Z,33.55
2022-12-01T22:47:29.214Z,32.15
2022-12-01T22:52:28.200Z,32.58
2022-12-01T22:57:34.923Z,34.05
2022-12-01T23:02:34.715Z,32.92
2022-12-01T23:07:32.747Z,33.72
2022-12-01T23:12:30.304Z,35.85
2022-12-01T23:17:30.696Z,34.45
2022-12-01T23:22:26.930Z,30.85
2022-12-01T23:27:23.358Z,33.50
2022-12-01T23:32:21.516Z,30.88
2022-12-01T23:37:26.741Z,33.47
2022-12-01T23:42:25.474Z,33.80
2022-12-01T23:47:24.170Z,34.80
2022-12-01T23:52:20.960Z,33.67
2022-12-01T23:57:23.660Z,32.15
